createdAt,value
2022-08-17T00:02:04.974Z,97565.94
2022-08-17T00:04:40.989Z,97569.47
2022-08-17T00:07:07.837Z,97560.56
2022-08-17T00:09:34.247Z,97560.03
2022-08-17T00:12:41.280Z,97565.50
2022-08-17T00:14:50.319Z,97562.88
2022-08-17T00:17:16.787Z,97559.13
2022-08-17T00:19:43.377Z,97567.59
2022-08-17T00:22:32.177Z,97573.31
2022-08-17T00:24:56.305Z,97570.75
2022-08-17T00:27:22.802Z,97565.13
2022-08-17T00:29:49.257Z,97565.59
2022-08-17T00:33:12.286Z,97546.53
2022-08-17T00:35:06.441Z,97488.38
2022-08-17T00:37:32.935Z,97539.06
2022-08-17T00:39:59.591Z,97558.34
2022-08-17T00:42:30.808Z,97554.66
2022-08-17T00:44:58.084Z,97549.50
2022-08-17T00:47:24.595Z,97550.28
2022-08-17T00:49:51.068Z,97551.47
2022-08-17T00:52:22.985Z,97551.03
2022-08-17T00:54:53.922Z,97552.16
2022-08-17T00:57:24.685Z,97539.63
2022-08-17T01:00:03.153Z,97541.88
2022-08-17T01:02:51.486Z,97548.59
2022-08-17T01:05:20.848Z,97551.81
2022-08-17T01:07:50.712Z,97545.31
2022-08-17T01:10:59.577Z,97537.81
2022-08-17T01:13:11.157Z,97547.03
2022-08-17T01:15:41.747Z,97548.13
2022-08-17T01:18:14.051Z,97550.28
2022-08-17T01:20:48.015Z,97554.16
2022-08-17T01:23:20.636Z,97543.88
2022-08-17T01:25:56.697Z,97537.34
2022-08-17T01:28:52.618Z,97547.53
2022-08-17T01:31:12.933Z,97542.31
2022-08-17T01:33:39.434Z,97551.78
2022-08-17T01:36:07.368Z,97547.25
2022-08-17T01:38:38.382Z,97545.75
2022-08-17T01:41:15.337Z,97550.84
2022-08-17T01:43:50.890Z,97548.88
2022-08-17T01:46:23.784Z,97544.63
2022-08-17T01:48:51.542Z,97552.00
2022-08-17T01:51:19.709Z,97553.34
2022-08-17T01:53:51.630Z,97554.81
2022-08-17T01:56:21.440Z,97555.34
2022-08-17T01:58:48.378Z,97558.91
2022-08-17T02:01:19.473Z,97535.06
2022-08-17T02:03:59.016Z,97550.28
2022-08-17T02:06:43.954Z,97552.28
2022-08-17T02:09:17.016Z,97547.22
2022-08-17T02:11:44.240Z,97553.47
2022-08-17T02:14:12.202Z,97559.19
2022-08-17T02:16:41.200Z,97556.91
2022-08-17T02:19:13.566Z,97551.22
2022-08-17T02:21:42.077Z,97552.03
2022-08-17T02:24:58.641Z,97555.16
2022-08-17T02:27:27.991Z,97549.81
2022-08-17T02:29:54.591Z,97543.63
2022-08-17T02:32:27.996Z,97543.69
2022-08-17T02:34:55.761Z,97546.72
2022-08-17T02:37:22.290Z,97535.34
2022-08-17T02:39:48.797Z,97536.66
2022-08-17T02:42:15.561Z,97537.16
2022-08-17T02:44:42.043Z,97543.47
2022-08-17T02:47:10.044Z,97525.19
2022-08-17T02:49:37.274Z,97540.16
2022-08-17T02:52:06.594Z,97543.34
2022-08-17T02:54:39.941Z,97541.72
2022-08-17T02:57:10.529Z,97511.41
2022-08-17T02:59:46.758Z,97511.66
2022-08-17T03:02:15.405Z,97533.00
2022-08-17T03:04:43.328Z,97533.19
2022-08-17T03:07:09.766Z,97466.44
2022-08-17T03:09:36.326Z,97526.81
2022-08-17T03:12:08.995Z,97529.28
2022-08-17T03:14:41.758Z,97533.00
2022-08-17T03:17:10.177Z,97530.72
2022-08-17T03:19:37.201Z,97536.63
2022-08-17T03:22:36.408Z,97541.38
2022-08-17T03:24:57.343Z,97550.16
2022-08-17T03:27:23.775Z,97560.94
2022-08-17T03:29:50.257Z,97604.22
2022-08-17T03:32:16.802Z,97599.09
2022-08-17T03:34:43.526Z,97586.03
2022-08-17T03:37:10.083Z,97598.56
2022-08-17T03:39:36.602Z,97598.56
2022-08-17T03:42:09.016Z,97594.00
2022-08-17T03:44:57.879Z,97605.19
2022-08-17T03:47:43.638Z,97599.16
2022-08-17T03:50:38.709Z,97599.06
2022-08-17T03:53:30.687Z,97597.16
2022-08-17T03:56:20.484Z,97602.31
2022-08-17T03:58:47.916Z,97606.06
2022-08-17T04:01:15.578Z,97607.03
2022-08-17T04:03:42.094Z,97607.38
2022-08-17T04:06:08.598Z,97602.63
2022-08-17T04:08:35.524Z,97603.19
2022-08-17T04:11:02.298Z,97583.16
2022-08-17T04:13:28.786Z,97595.66
2022-08-17T04:15:56.095Z,97575.34
2022-08-17T04:18:22.667Z,97598.56
2022-08-17T04:20:49.177Z,97607.91
2022-08-17T04:23:18.595Z,97596.63
2022-08-17T04:25:49.196Z,97595.91
2022-08-17T04:28:16.892Z,97587.22
2022-08-17T04:30:45.193Z,97592.66
2022-08-17T04:33:17.939Z,97596.13
2022-08-17T04:35:47.052Z,97596.34
2022-08-17T04:38:16.515Z,97572.75
2022-08-17T04:41:02.462Z,97590.63
2022-08-17T04:43:31.174Z,97597.34
2022-08-17T04:46:01.288Z,97596.25
2022-08-17T04:48:36.837Z,97600.81
2022-08-17T04:51:10.377Z,97592.22
2022-08-17T04:53:38.310Z,97582.19
2022-08-17T04:56:05.217Z,97575.69
2022-08-17T04:58:31.901Z,97580.63
2022-08-17T05:00:58.521Z,97593.28
2022-08-17T05:03:25.834Z,97590.25
2022-08-17T05:05:52.479Z,97593.44
2022-08-17T05:08:20.856Z,97593.22
2022-08-17T05:10:48.422Z,97558.22
2022-08-17T05:13:27.445Z,97597.31
2022-08-17T05:15:57.284Z,97585.03
2022-08-17T05:18:24.562Z,97587.78
2022-08-17T05:20:52.373Z,97588.81
2022-08-17T05:23:21.908Z,97597.09
2022-08-17T05:25:52.726Z,97600.00
2022-08-17T05:28:24.170Z,97592.88
2022-08-17T05:30:56.715Z,97586.47
2022-08-17T05:33:27.165Z,97583.03
2022-08-17T05:35:56.472Z,97583.59
2022-08-17T05:38:25.350Z,97575.22
2022-08-17T05:40:52.645Z,97565.22
2022-08-17T05:43:22.356Z,97564.66
2022-08-17T05:45:59.635Z,97561.66
2022-08-17T05:48:35.444Z,97560.03
2022-08-17T05:51:15.540Z,97566.09
2022-08-17T05:54:05.244Z,97552.63
2022-08-17T05:57:04.094Z,97552.13
2022-08-17T05:59:55.112Z,97543.66
2022-08-17T06:03:06.035Z,97547.00
2022-08-17T06:06:17.355Z,97548.78
2022-08-17T06:08:59.171Z,97563.75
2022-08-17T06:11:38.915Z,97560.31
2022-08-17T06:14:23.440Z,97579.81
2022-08-17T06:16:55.958Z,97591.78
2022-08-17T06:19:37.400Z,97592.00
2022-08-17T06:22:07.411Z,97588.16
2022-08-17T06:24:39.089Z,97599.25
2022-08-17T06:27:43.087Z,97590.34
2022-08-17T06:30:15.755Z,97589.81
2022-08-17T06:32:45.014Z,97580.19
2022-08-17T06:35:15.230Z,97589.75
2022-08-17T06:37:53.618Z,97580.19
2022-08-17T06:40:57.841Z,97554.66
2022-08-17T06:43:35.682Z,97556.50
2022-08-17T06:46:08.147Z,97575.44
2022-08-17T06:48:46.957Z,97575.88
2022-08-17T06:51:25.556Z,97597.50
2022-08-17T06:54:15.330Z,97612.00
2022-08-17T06:56:53.762Z,97614.56
2022-08-17T06:59:26.787Z,97603.47
2022-08-17T07:02:19.967Z,97620.59
2022-08-17T07:04:56.767Z,97627.94
2022-08-17T07:07:42.137Z,97625.41
2022-08-17T07:10:10.031Z,97616.75
2022-08-17T07:12:40.373Z,97618.78
2022-08-17T07:15:42.231Z,97636.72
2022-08-17T07:18:10.068Z,97632.53
2022-08-17T07:20:42.695Z,97634.66
2022-08-17T07:23:22.857Z,97615.03
2022-08-17T07:25:49.470Z,97616.63
2022-08-17T07:28:22.897Z,97610.66
2022-08-17T07:30:54.142Z,97594.66
2022-08-17T07:33:30.104Z,97602.53
2022-08-17T07:35:58.018Z,97598.16
2022-08-17T07:38:30.034Z,97598.69
2022-08-17T07:41:03.004Z,97603.06
2022-08-17T07:43:39.112Z,97585.88
2022-08-17T07:46:53.804Z,97587.97
2022-08-17T07:49:39.660Z,97599.94
2022-08-17T07:52:51.274Z,97590.84
2022-08-17T07:55:32.887Z,97618.19
2022-08-17T07:58:00.202Z,97621.59
2022-08-17T08:00:32.240Z,97606.63
2022-08-17T08:03:14.669Z,97612.00
2022-08-17T08:05:51.037Z,97606.53
2022-08-17T08:08:32.764Z,97617.22
2022-08-17T08:11:01.088Z,97625.97
2022-08-17T08:13:30.266Z,97611.31
2022-08-17T08:16:16.653Z,97616.34
2022-08-17T08:18:55.592Z,97615.03
2022-08-17T08:21:46.352Z,97600.59
2022-08-17T08:24:25.819Z,97620.25
2022-08-17T08:27:42.954Z,97639.34
2022-08-17T08:30:14.331Z,97673.31
2022-08-17T08:33:01.480Z,97698.00
2022-08-17T08:35:44.379Z,97694.06
2022-08-17T08:38:28.401Z,97702.41
2022-08-17T08:41:12.930Z,97714.56
2022-08-17T08:44:06.792Z,97698.41
2022-08-17T08:46:50.364Z,97697.41
2022-08-17T08:50:03.814Z,97707.03
2022-08-17T08:52:57.534Z,97687.75
2022-08-17T08:55:53.499Z,97704.78
2022-08-17T08:58:48.245Z,97721.56
2022-08-17T09:01:41.745Z,97724.19
2022-08-17T09:05:02.651Z,97715.44
2022-08-17T09:07:46.689Z,97718.97
2022-08-17T09:10:19.473Z,97716.19
2022-08-17T09:13:14.396Z,97707.63
2022-08-17T09:15:46.608Z,97707.53
2022-08-17T09:19:02.770Z,97693.59
2022-08-17T09:21:13.317Z,97701.22
2022-08-17T09:23:49.490Z,97702.72
2022-08-17T09:26:22.435Z,97703.06
2022-08-17T09:29:00.155Z,97717.00
2022-08-17T09:31:55.202Z,97704.66
2022-08-17T09:34:38.219Z,97714.28
2022-08-17T09:37:26.907Z,97712.50
2022-08-17T09:40:13.996Z,97711.09
2022-08-17T09:42:58.730Z,97699.72
2022-08-17T09:45:37.491Z,97689.19
2022-08-17T09:48:26.027Z,97678.28
2022-08-17T09:51:05.877Z,97668.75
2022-08-17T09:53:35.750Z,97660.63
2022-08-17T09:56:14.568Z,97656.97
2022-08-17T09:58:51.214Z,97674.47
2022-08-17T10:01:36.218Z,97676.06
2022-08-17T10:04:20.070Z,97691.22
2022-08-17T10:07:19.228Z,97701.41
2022-08-17T10:09:55.781Z,97708.06
2022-08-17T10:12:38.241Z,97711.16
2022-08-17T10:15:34.591Z,97711.59
2022-08-17T10:18:42.107Z,97716.59
2022-08-17T10:21:30.274Z,97699.97
2022-08-17T10:24:24.610Z,97710.34
2022-08-17T10:26:56.808Z,97647.97
2022-08-17T10:29:48.626Z,97704.53
2022-08-17T10:32:47.179Z,97690.25
2022-08-17T10:35:25.897Z,97693.50
2022-08-17T10:38:29.895Z,97709.16
2022-08-17T10:41:15.226Z,97701.31
2022-08-17T10:44:40.321Z,97702.78
2022-08-17T10:47:09.528Z,97711.41
2022-08-17T10:49:38.881Z,97709.84
2022-08-17T10:52:20.662Z,97717.34
2022-08-17T10:54:51.839Z,97719.75
2022-08-17T10:57:34.432Z,97721.81
2022-08-17T11:00:17.349Z,97720.84
2022-08-17T11:02:50.036Z,97711.53
2022-08-17T11:05:44.060Z,97723.69
2022-08-17T11:08:30.202Z,97726.69
2022-08-17T11:11:23.220Z,97722.38
2022-08-17T11:14:26.885Z,97726.47
2022-08-17T11:17:16.197Z,97733.16
2022-08-17T11:20:07.031Z,97734.63
2022-08-17T11:23:14.672Z,97728.06
2022-08-17T11:25:50.734Z,97723.25
2022-08-17T11:28:25.979Z,97708.38
2022-08-17T11:30:56.216Z,97706.13
2022-08-17T11:33:28.621Z,97705.63
2022-08-17T11:36:20.561Z,97705.44
2022-08-17T11:39:01.018Z,97705.44
2022-08-17T11:41:49.524Z,97698.97
2022-08-17T11:44:26.379Z,97693.00
2022-08-17T11:47:33.726Z,97692.06
2022-08-17T11:50:36.349Z,97688.34
2022-08-17T11:53:04.077Z,97697.47
2022-08-17T11:55:37.535Z,97700.75
2022-08-17T11:58:28.886Z,97703.78
2022-08-17T12:01:04.022Z,97706.53
2022-08-17T12:03:33.259Z,97700.59
2022-08-17T12:06:19.437Z,97696.88
2022-08-17T12:08:53.763Z,97687.16
2022-08-17T12:11:57.833Z,97698.69
2022-08-17T12:15:08.332Z,97696.22
2022-08-17T12:17:40.193Z,97697.16
2022-08-17T12:20:37.600Z,97700.09
2022-08-17T12:23:26.546Z,97692.91
2022-08-17T12:26:04.843Z,97689.13
2022-08-17T12:28:35.431Z,97685.22
2022-08-17T12:31:15.810Z,97689.16
2022-08-17T12:33:45.141Z,97679.50
2022-08-17T12:36:15.192Z,97682.97
2022-08-17T12:38:50.858Z,97684.94
2022-08-17T12:41:31.383Z,97684.63
2022-08-17T12:44:02.874Z,97687.31
2022-08-17T12:46:34.751Z,97681.19
2022-08-17T12:49:42.163Z,97683.44
2022-08-17T12:52:25.629Z,97679.44
2022-08-17T12:55:21.251Z,97674.09
2022-08-17T12:57:54.202Z,97662.72
2022-08-17T13:00:40.848Z,97654.28
2022-08-17T13:03:20.940Z,97650.91
2022-08-17T13:06:06.568Z,97627.88
2022-08-17T13:08:43.787Z,97641.00
2022-08-17T13:11:19.058Z,97645.19
2022-08-17T13:13:51.719Z,97635.69
2022-08-17T13:16:23.850Z,97634.53
2022-08-17T13:19:07.239Z,97635.31
2022-08-17T13:21:36.415Z,97614.88
2022-08-17T13:24:10.969Z,97607.13
2022-08-17T13:26:39.298Z,97627.44
2022-08-17T13:29:23.947Z,97611.53
2022-08-17T13:32:01.115Z,97619.34
2022-08-17T13:34:48.955Z,97633.66
2022-08-17T13:37:32.952Z,97628.50
2022-08-17T13:40:19.407Z,97616.78
2022-08-17T13:42:52.944Z,97613.75
2022-08-17T13:45:36.156Z,97611.53
2022-08-17T13:48:20.911Z,97598.81
2022-08-17T13:50:56.549Z,97603.78
2022-08-17T13:53:24.936Z,97612.09
2022-08-17T13:56:37.913Z,97607.78
2022-08-17T13:59:53.520Z,97602.47
2022-08-17T14:02:19.641Z,97600.44
2022-08-17T14:04:47.946Z,97593.28
2022-08-17T14:07:15.862Z,97604.69
2022-08-17T14:09:51.731Z,97597.09
2022-08-17T14:12:21.614Z,97588.75
2022-08-17T14:14:49.492Z,97587.69
2022-08-17T14:17:16.212Z,97588.34
2022-08-17T14:19:42.692Z,97594.81
2022-08-17T14:22:18.739Z,97579.25
2022-08-17T14:24:45.770Z,97568.38
2022-08-17T14:27:12.331Z,97579.88
2022-08-17T14:29:41.002Z,97574.59
2022-08-17T14:32:30.302Z,97570.06
2022-08-17T14:34:57.838Z,97571.94
2022-08-17T14:37:27.838Z,97570.88
2022-08-17T14:40:00.034Z,97563.94
2022-08-17T14:42:30.939Z,97560.59
2022-08-17T14:44:58.782Z,97562.84
2022-08-17T14:47:26.557Z,97558.56
2022-08-17T14:49:54.124Z,97547.44
2022-08-17T14:52:21.653Z,97564.78
2022-08-17T14:54:51.206Z,97559.03
2022-08-17T14:57:33.308Z,97539.66
2022-08-17T15:00:01.773Z,97562.97
2022-08-17T15:02:30.408Z,97558.41
2022-08-17T15:05:03.940Z,97564.19
2022-08-17T15:07:31.419Z,97562.38
2022-08-17T15:10:00.693Z,97567.50
2022-08-17T15:12:32.775Z,97558.88
2022-08-17T15:15:01.644Z,97548.94
2022-08-17T15:17:45.125Z,97546.41
2022-08-17T15:20:15.668Z,97562.44
2022-08-17T15:22:43.646Z,97558.91
2022-08-17T15:25:11.532Z,97558.69
2022-08-17T15:27:37.995Z,97558.41
2022-08-17T15:30:07.201Z,97550.44
2022-08-17T15:32:37.975Z,97560.19
2022-08-17T15:35:06.805Z,97572.59
2022-08-17T15:37:33.425Z,97572.63
2022-08-17T15:40:03.022Z,97562.38
2022-08-17T15:42:29.566Z,97562.38
2022-08-17T15:44:56.539Z,97554.50
2022-08-17T15:47:23.289Z,97541.56
2022-08-17T15:49:50.706Z,97542.53
2022-08-17T15:52:20.384Z,97540.34
2022-08-17T15:54:52.046Z,97546.28
2022-08-17T15:57:19.246Z,97544.03
2022-08-17T15:59:46.494Z,97529.59
2022-08-17T16:03:13.250Z,97547.50
2022-08-17T16:05:18.834Z,97551.06
2022-08-17T16:07:47.217Z,97544.63
2022-08-17T16:10:18.855Z,97533.81
2022-08-17T16:12:47.868Z,97546.13
2022-08-17T16:15:15.046Z,97551.50
2022-08-17T16:17:41.717Z,97560.88
2022-08-17T16:20:19.583Z,97571.66
2022-08-17T16:22:49.892Z,97576.94
2022-08-17T16:25:21.482Z,97573.78
2022-08-17T16:27:54.336Z,97586.81
2022-08-17T16:30:24.807Z,97585.66
2022-08-17T16:32:52.903Z,97585.44
2022-08-17T16:35:22.670Z,97589.66
2022-08-17T16:37:49.447Z,97587.03
2022-08-17T16:40:17.202Z,97589.00
2022-08-17T16:42:45.652Z,97584.09
2022-08-17T16:45:16.797Z,97573.63
2022-08-17T16:47:43.786Z,97569.72
2022-08-17T16:50:17.625Z,97569.53
2022-08-17T16:52:44.292Z,97571.56
2022-08-17T16:55:13.256Z,97572.03
2022-08-17T16:57:47.400Z,97575.22
2022-08-17T17:00:19.451Z,97573.06
2022-08-17T17:02:47.746Z,97584.44
2022-08-17T17:05:35.592Z,97587.31
2022-08-17T17:08:15.050Z,97572.06
2022-08-17T17:10:46.946Z,97579.69
2022-08-17T17:13:19.222Z,97573.88
2022-08-17T17:15:54.951Z,97571.59
2022-08-17T17:18:32.160Z,97572.06
2022-08-17T17:21:00.387Z,97561.69
2022-08-17T17:23:54.917Z,97555.44
2022-08-17T17:26:50.133Z,97557.94
2022-08-17T17:29:48.837Z,97559.63
2022-08-17T17:32:25.373Z,97551.00
2022-08-17T17:35:05.801Z,97547.91
2022-08-17T17:37:34.617Z,97549.97
2022-08-17T17:40:23.126Z,97553.81
2022-08-17T17:42:55.004Z,97560.91
2022-08-17T17:45:26.025Z,97554.28
2022-08-17T17:47:53.169Z,97550.59
2022-08-17T17:50:25.186Z,97545.59
2022-08-17T17:53:04.279Z,97555.97
2022-08-17T17:55:59.441Z,97551.72
2022-08-17T17:58:50.919Z,97558.00
2022-08-17T18:01:31.130Z,97550.81
2022-08-17T18:04:20.651Z,97550.81
2022-08-17T18:07:00.511Z,97550.34
2022-08-17T18:09:51.861Z,97553.63
2022-08-17T18:12:49.824Z,97562.16
2022-08-17T18:15:37.023Z,97566.63
2022-08-17T18:18:15.938Z,97574.00
2022-08-17T18:20:53.960Z,97573.34
2022-08-17T18:23:28.123Z,97580.03
2022-08-17T18:25:56.301Z,97573.63
2022-08-17T18:28:26.000Z,97570.19
2022-08-17T18:31:17.303Z,97552.28
2022-08-17T18:33:53.316Z,97575.47
2022-08-17T18:36:33.285Z,97577.31
2022-08-17T18:39:27.816Z,97579.25
2022-08-17T18:41:57.666Z,97588.81
2022-08-17T18:44:30.821Z,97598.97
2022-08-17T18:47:14.550Z,97603.44
2022-08-17T18:49:49.762Z,97599.94
2022-08-17T18:52:29.653Z,97606.81
2022-08-17T18:55:08.772Z,97616.41
2022-08-17T18:57:55.455Z,97621.06
2022-08-17T19:00:40.769Z,97619.44
2022-08-17T19:03:16.225Z,97639.84
2022-08-17T19:05:50.847Z,97642.94
2022-08-17T19:08:33.991Z,97641.22
2022-08-17T19:11:05.348Z,97628.91
2022-08-17T19:13:37.325Z,97638.75
2022-08-17T19:16:20.029Z,97631.03
2022-08-17T19:18:54.813Z,97640.03
2022-08-17T19:21:25.182Z,97638.28
2022-08-17T19:24:05.617Z,97635.09
2022-08-17T19:26:54.031Z,97648.22
2022-08-17T19:29:46.672Z,97650.16
2022-08-17T19:32:17.314Z,97650.16
2022-08-17T19:34:44.386Z,97647.75
2022-08-17T19:37:38.770Z,97658.66
2022-08-17T19:40:07.929Z,97649.53
2022-08-17T19:43:11.355Z,97653.25
2022-08-17T19:45:42.322Z,97656.59
2022-08-17T19:48:18.037Z,97666.88
2022-08-17T19:51:00.777Z,97664.16
2022-08-17T19:54:04.758Z,97676.78
2022-08-17T19:56:49.371Z,97672.03
2022-08-17T19:59:41.430Z,97672.50
2022-08-17T20:02:32.492Z,97664.31
2022-08-17T20:05:04.352Z,97664.19
2022-08-17T20:08:00.683Z,97668.19
2022-08-17T20:10:47.375Z,97667.16
2022-08-17T20:13:33.497Z,97674.34
2022-08-17T20:16:01.746Z,97666.81
2022-08-17T20:19:19.439Z,97668.56
2022-08-17T20:21:53.870Z,97660.59
2022-08-17T20:24:37.838Z,97655.16
2022-08-17T20:27:16.591Z,97662.50
2022-08-17T20:29:55.249Z,97670.13
2022-08-17T20:32:26.227Z,97673.47
2022-08-17T20:35:06.060Z,97677.34
2022-08-17T20:37:35.014Z,97664.63
2022-08-17T20:40:04.807Z,97664.66
2022-08-17T20:42:33.783Z,97672.63
2022-08-17T20:45:22.038Z,97669.75
2022-08-17T20:48:15.994Z,97665.38
2022-08-17T20:50:44.025Z,97646.44
2022-08-17T20:53:31.470Z,97688.22
2022-08-17T20:55:58.102Z,97673.47
2022-08-17T20:58:24.509Z,97695.03
2022-08-17T21:00:57.132Z,97690.53
2022-08-17T21:03:23.667Z,97690.38
2022-08-17T21:06:00.308Z,97678.78
2022-08-17T21:08:45.786Z,97687.84
2022-08-17T21:12:01.516Z,97689.47
2022-08-17T21:14:56.060Z,97682.66
2022-08-17T21:17:39.421Z,97682.06
2022-08-17T21:20:32.111Z,97684.78
2022-08-17T21:23:08.856Z,97688.91
2022-08-17T21:25:54.044Z,97677.84
2022-08-17T21:28:33.792Z,97678.84
2022-08-17T21:31:08.376Z,97685.50
2022-08-17T21:33:39.925Z,97681.00
2022-08-17T21:36:12.294Z,97688.22
2022-08-17T21:38:47.854Z,97688.03
2022-08-17T21:41:28.511Z,97677.47
2022-08-17T21:44:05.233Z,97678.59
2022-08-17T21:46:37.831Z,97685.81
2022-08-17T21:49:09.170Z,97687.03
2022-08-17T21:51:46.933Z,97695.50
2022-08-17T21:54:35.585Z,97690.06
2022-08-17T21:57:05.548Z,97680.94
2022-08-17T21:59:35.656Z,97692.91
2022-08-17T22:02:06.960Z,97682.53
2022-08-17T22:04:39.619Z,97689.06
2022-08-17T22:07:12.703Z,97688.69
2022-08-17T22:09:48.686Z,97694.56
2022-08-17T22:12:18.839Z,97694.84
2022-08-17T22:14:57.212Z,97700.19
2022-08-17T22:17:23.588Z,97707.63
2022-08-17T22:19:59.524Z,97704.41
2022-08-17T22:22:32.463Z,97713.84
2022-08-17T22:25:04.097Z,97714.88
2022-08-17T22:27:48.517Z,97724.72
2022-08-17T22:30:26.195Z,97728.03
2022-08-17T22:32:53.931Z,97729.75
2022-08-17T22:36:11.023Z,97738.75
2022-08-17T22:38:38.967Z,97740.47
2022-08-17T22:41:32.138Z,97746.00
2022-08-17T22:44:08.952Z,97737.19
2022-08-17T22:46:41.046Z,97740.00
2022-08-17T22:49:07.663Z,97738.78
2022-08-17T22:51:34.119Z,97741.91
2022-08-17T22:54:21.895Z,97742.00
2022-08-17T22:57:18.966Z,97750.63
2022-08-17T22:59:49.446Z,97747.44
2022-08-17T23:02:19.477Z,97748.84
2022-08-17T23:04:54.326Z,97751.03
2022-08-17T23:07:21.551Z,97756.53
2022-08-17T23:09:48.163Z,97760.47
2022-08-17T23:12:22.749Z,97761.28
2022-08-17T23:14:51.367Z,97760.75
2022-08-17T23:17:18.043Z,97775.94
2022-08-17T23:19:45.028Z,97775.34
2022-08-17T23:22:11.755Z,97785.34
2022-08-17T23:24:46.455Z,97787.19
2022-08-17T23:27:12.968Z,97785.47
2022-08-17T23:29:41.943Z,97794.41
2022-08-17T23:32:14.677Z,97795.50
2022-08-17T23:34:44.029Z,97800.78
2022-08-17T23:37:11.781Z,97792.97
2022-08-17T23:39:39.621Z,97796.81
2022-08-17T23:42:08.977Z,97799.78
2022-08-17T23:44:37.245Z,97795.59
2022-08-17T23:47:04.798Z,97802.53
2022-08-17T23:49:31.860Z,97787.19
2022-08-17T23:52:01.233Z,97798.31
2022-08-17T23:54:34.097Z,97797.88
2022-08-17T23:57:04.026Z,97808.88
2022-08-17T23:59:30.468Z,97810.03
